Weather at King Abdulaziz International Airport

Public forecast

Using degrees Celsius for public forecast. Weather courtesy of forecast.io.

Current aviation weather report (METAR) for King Abdulaziz International Airport

Report is more than 6 hours old.

2022/11/14 15:00 (retrieved 2 years ago)

OEJN 141500Z 30007KT CAVOK 30/22 Q1012 NOSIG

Aviation forecast (TAF) for King Abdulaziz International Airport

Forecast is more than 12 hours old.

2023/02/22 18:33 (retrieved 1 year ago)

TAF OEJN 221700Z 2218/2324 02006KT 7000 NSC BECMG 2308/2310 28010KT BECMG 2318/2320 02006KT